Time,TemperatureF,DewpointF,PressureIn,WindDirection,WindDirectionDegrees,WindSpeedMPH,WindSpeedGustMPH,Humidity,HourlyPrecipIn,Conditions,Clouds,dailyrainin,SoftwareType,DateUTC
2013-09-05 00:04:00,78.8,75.0,30.09,WSW,257,1.0,2.0,87,0.00,,,0.00,weatherlink.com 1.10,2013-09-05 04:04:00,
2013-09-05 00:19:00,78.3,75.0,30.09,West,273,0.0,1.0,88,0.00,,,0.00,weatherlink.com 1.10,2013-09-05 04:19:00,
2013-09-05 00:34:00,77.7,74.0,30.09,West,269,1.0,1.0,89,0.00,,,0.00,weatherlink.com 1.10,2013-09-05 04:34:00,
2013-09-05 00:49:00,77.0,74.0,30.09,WNW,297,2.0,2.0,90,0.00,,,0.00,weatherlink.com 1.10,2013-09-05 04:49:00,
2013-09-05 01:04:00,75.9,74.0,30.09,WNW,300,1.0,2.0,92,0.00,,,0.00,weatherlink.com 1.10,2013-09-05 05:04:00,
2013-09-05 01:19:00,75.3,73.0,30.09,NW,304,2.0,2.0,93,0.00,,,0.00,weatherlink.com 1.10,2013-09-05 05:19:00,
2013-09-05 01:34:00,75.1,73.0,30.09,NW,311,1.0,2.0,94,0.00,,,0.00,weatherlink.com 1.10,2013-09-05 05:34:00,
2013-09-05 01:49:00,75.1,73.0,30.08,NW,305,1.0,1.0,94,0.00,,,0.00,weatherlink.com 1.10,2013-09-05 05:49:00,
2013-09-05 02:04:00,75.3,74.0,30.08,NW,306,1.0,1.0,94,0.00,,,0.00,weatherlink.com 1.10,2013-09-05 06:04:00,
2013-09-05 02:19:00,75.0,73.0,30.07,NW,310,0.0,2.0,94,0.00,,,0.00,weatherlink.com 1.10,2013-09-05 06:19:00,
2013-09-05 02:34:00,74.8,73.0,30.07,NW,309,1.0,2.0,95,0.00,,,0.00,weatherlink.com 1.10,2013-09-05 06:34:00,
2013-09-05 02:49:00,74.7,73.0,30.07,WNW,295,1.0,2.0,95,0.00,,,0.00,weatherlink.com 1.10,2013-09-05 06:49:00,
2013-09-05 03:04:00,75.0,74.0,30.06,WNW,295,0.0,0.0,95,0.00,,,0.00,weatherlink.com 1.10,2013-09-05 07:04:00,
2013-09-05 03:19:00,75.7,74.0,30.06,WNW,290,1.0,1.0,95,0.00,,,0.00,weatherlink.com 1.10,2013-09-05 07:19:00,
2013-09-05 03:34:00,75.5,74.0,30.06,WNW,293,1.0,2.0,95,0.00,,,0.00,weatherlink.com 1.10,2013-09-05 07:34:00,
2013-09-05 03:49:00,75.2,74.0,30.06,WNW,293,0.0,1.0,95,0.00,,,0.00,weatherlink.com 1.10,2013-09-05 07:49:00,
2013-09-05 04:05:00,75.1,74.0,30.06,WNW,293,1.0,2.0,95,0.00,,,0.00,weatherlink.com 1.10,2013-09-05 08:05:00,
2013-09-05 04:20:00,74.8,74.0,30.06,NW,318,1.0,2.0,96,0.00,,,0.00,weatherlink.com 1.10,2013-09-05 08:20:00,
2013-09-05 04:35:00,74.5,73.0,30.06,NW,318,2.0,2.0,96,0.00,,,0.00,weatherlink.com 1.10,2013-09-05 08:35:00,
2013-09-05 04:50:00,74.4,73.0,30.06,NW,318,1.0,2.0,96,0.00,,,0.00,weatherlink.com 1.10,2013-09-05 08:50:00,
2013-09-05 05:05:00,73.9,73.0,30.06,NW,317,1.0,2.0,96,0.00,,,0.00,weatherlink.com 1.10,2013-09-05 09:05:00,
2013-09-05 05:20:00,74.0,73.0,30.06,NW,317,0.0,2.0,96,0.00,,,0.00,weatherlink.com 1.10,2013-09-05 09:20:00,
2013-09-05 05:35:00,73.9,73.0,30.06,NW,317,0.0,1.0,97,0.00,,,0.00,weatherlink.com 1.10,2013-09-05 09:35:00,
2013-09-05 05:50:00,74.1,73.0,30.06,NW,317,1.0,1.0,97,0.00,,,0.00,weatherlink.com 1.10,2013-09-05 09:50:00,
2013-09-05 06:05:00,74.4,74.0,30.06,NW,317,0.0,1.0,97,0.00,,,0.00,weatherlink.com 1.10,2013-09-05 10:05:00,
2013-09-05 06:20:00,74.7,74.0,30.06,NW,317,0.0,0.0,97,0.00,,,0.00,weatherlink.com 1.10,2013-09-05 10:20:00,
2013-09-05 06:35:00,74.7,74.0,30.07,NW,306,0.0,0.0,97,0.00,,,0.00,weatherlink.com 1.10,2013-09-05 10:35:00,
2013-09-05 06:50:00,74.8,74.0,30.07,NNW,328,0.0,0.0,97,0.00,,,0.00,weatherlink.com 1.10,2013-09-05 10:50:00,
2013-09-05 07:05:00,74.8,74.0,30.07,NW,319,0.0,0.0,97,0.00,,,0.00,weatherlink.com 1.10,2013-09-05 11:05:00,
2013-09-05 07:20:00,75.0,74.0,30.07,NW,319,0.0,0.0,97,0.00,,,0.00,weatherlink.com 1.10,2013-09-05 11:20:00,
2013-09-05 07:35:00,74.6,74.0,30.08,NW,319,0.0,0.0,97,0.00,,,0.00,weatherlink.com 1.10,2013-09-05 11:35:00,
2013-09-05 07:50:00,75.3,74.0,30.08,NW,309,0.0,0.0,97,0.00,,,0.00,weatherlink.com 1.10,2013-09-05 11:50:00,
2013-09-05 08:05:00,76.0,75.0,30.08,NW,313,0.0,0.0,97,0.00,,,0.00,weatherlink.com 1.10,2013-09-05 12:05:00,
2013-09-05 08:20:00,76.4,76.0,30.08,NNE,27,0.0,0.0,97,0.00,,,0.00,weatherlink.com 1.10,2013-09-05 12:20:00,
2013-09-05 08:35:00,76.8,76.0,30.09,NNE,20,1.0,3.0,96,0.00,,,0.00,weatherlink.com 1.10,2013-09-05 12:35:00,
2013-09-05 08:50:00,77.7,77.0,30.09,West,271,1.0,2.0,97,0.00,,,0.00,weatherlink.com 1.10,2013-09-05 12:50:00,
2013-09-05 09:05:00,78.5,77.0,30.09,NW,315,2.0,3.0,95,0.00,,,0.00,weatherlink.com 1.10,2013-09-05 13:05:00,
2013-09-05 09:20:00,78.7,77.0,30.09,WNW,291,2.0,4.0,94,0.00,,,0.00,weatherlink.com 1.10,2013-09-05 13:20:00,
2013-09-05 09:35:00,79.6,77.0,30.09,NE,49,2.0,5.0,92,0.00,,,0.00,weatherlink.com 1.10,2013-09-05 13:35:00,
2013-09-05 09:50:00,80.0,77.0,30.09,WNW,285,2.0,3.0,90,0.00,,,0.00,weatherlink.com 1.10,2013-09-05 13:50:00,
2013-09-05 10:05:00,80.9,77.0,30.09,ESE,119,2.0,3.0,87,0.00,,,0.00,weatherlink.com 1.10,2013-09-05 14:05:00,
2013-09-05 10:20:00,80.5,77.0,30.10,East,94,1.0,3.0,88,0.00,,,0.00,weatherlink.com 1.10,2013-09-05 14:20:00,
2013-09-05 10:35:00,81.0,77.0,30.10,NE,54,6.0,6.0,87,0.00,,,0.00,weatherlink.com 1.10,2013-09-05 14:35:00,
2013-09-05 10:50:00,81.0,76.0,30.10,NE,56,7.0,13.0,85,0.00,,,0.00,weatherlink.com 1.10,2013-09-05 14:50:00,
2013-09-05 11:05:00,81.1,76.0,30.10,ENE,63,5.0,8.0,83,0.00,,,0.00,weatherlink.com 1.10,2013-09-05 15:05:00,
2013-09-05 11:20:00,82.2,76.0,30.09,ESE,117,2.0,5.0,81,0.00,,,0.00,weatherlink.com 1.10,2013-09-05 15:20:00,
2013-09-05 11:35:00,82.3,76.0,30.10,SE,124,3.0,5.0,80,0.00,,,0.00,weatherlink.com 1.10,2013-09-05 15:35:00,
2013-09-05 11:50:00,83.2,76.0,30.09,SE,124,4.0,6.0,80,0.00,,,0.00,weatherlink.com 1.10,2013-09-05 15:50:00,
2013-09-05 12:05:00,83.4,76.0,30.09,SE,129,4.0,7.0,79,0.00,,,0.00,weatherlink.com 1.10,2013-09-05 16:05:00,
2013-09-05 12:20:00,83.6,77.0,30.09,SE,136,3.0,5.0,80,0.00,,,0.00,weatherlink.com 1.10,2013-09-05 16:20:00,
2013-09-05 12:35:00,83.1,78.0,30.09,SE,131,5.0,8.0,83,0.00,,,0.00,weatherlink.com 1.10,2013-09-05 16:35:00,
2013-09-05 12:50:00,82.7,78.0,30.08,SSE,150,4.0,8.0,84,0.00,,,0.00,weatherlink.com 1.10,2013-09-05 16:50:00,
2013-09-05 13:05:00,82.8,78.0,30.08,SE,140,9.0,9.0,84,0.00,,,0.00,weatherlink.com 1.10,2013-09-05 17:05:00,
2013-09-05 13:20:00,82.1,77.0,30.08,ESE,123,10.0,11.0,83,0.00,,,0.00,weatherlink.com 1.10,2013-09-05 17:20:00,
2013-09-05 13:35:00,81.8,77.0,30.07,ESE,123,6.0,9.0,84,0.01,,,0.01,weatherlink.com 1.10,2013-09-05 17:35:00,
2013-09-05 13:50:00,81.9,77.0,30.07,SE,134,6.0,8.0,85,0.01,,,0.01,weatherlink.com 1.10,2013-09-05 17:50:00,
2013-09-05 14:05:00,81.7,77.0,30.07,SE,138,4.0,9.0,84,0.01,,,0.01,weatherlink.com 1.10,2013-09-05 18:05:00,
2013-09-05 14:20:00,81.3,76.0,30.07,SE,138,3.0,7.0,84,0.01,,,0.01,weatherlink.com 1.10,2013-09-05 18:20:00,
2013-09-05 14:35:00,80.9,76.0,30.07,NW,309,1.0,5.0,85,0.00,,,0.01,weatherlink.com 1.10,2013-09-05 18:35:00,
2013-09-05 14:50:00,78.1,75.0,30.06,East,79,3.0,6.0,90,0.36,,,0.37,weatherlink.com 1.10,2013-09-05 18:50:00,
2013-09-05 15:05:00,77.7,76.0,30.05,West,271,1.0,2.0,93,0.37,,,0.38,weatherlink.com 1.10,2013-09-05 19:05:00,
2013-09-05 15:20:00,79.3,76.0,30.05,South,181,6.0,8.0,90,0.37,,,0.38,weatherlink.com 1.10,2013-09-05 19:20:00,
2013-09-05 15:35:00,80.2,76.0,30.05,SW,236,8.0,9.0,87,0.37,,,0.38,weatherlink.com 1.10,2013-09-05 19:35:00,
2013-09-05 15:50:00,79.8,77.0,30.04,West,268,1.0,2.0,90,0.01,,,0.38,weatherlink.com 1.10,2013-09-05 19:50:00,
2013-09-05 16:05:00,79.2,76.0,30.04,West,269,0.0,1.0,91,0.00,,,0.38,weatherlink.com 1.10,2013-09-05 20:05:00,
2013-09-05 16:20:00,79.2,77.0,30.04,West,270,1.0,1.0,92,0.00,,,0.38,weatherlink.com 1.10,2013-09-05 20:20:00,
2013-09-05 16:35:00,79.4,77.0,30.04,WSW,242,1.0,2.0,92,0.00,,,0.38,weatherlink.com 1.10,2013-09-05 20:35:00,
2013-09-05 16:50:00,79.8,77.0,30.04,West,261,0.0,2.0,92,0.00,,,0.38,weatherlink.com 1.10,2013-09-05 20:50:00,
2013-09-05 17:05:00,79.4,77.0,30.04,WNW,302,0.0,4.0,92,0.00,,,0.38,weatherlink.com 1.10,2013-09-05 21:05:00,
2013-09-05 17:20:00,79.9,77.0,30.03,West,281,2.0,3.0,92,0.00,,,0.38,weatherlink.com 1.10,2013-09-05 21:20:00,
2013-09-05 17:35:00,81.1,78.0,30.04,SW,233,1.0,5.0,89,0.00,,,0.38,weatherlink.com 1.10,2013-09-05 21:35:00,
2013-09-05 17:50:00,81.5,78.0,30.04,West,281,0.0,4.0,88,0.00,,,0.38,weatherlink.com 1.10,2013-09-05 21:50:00,
2013-09-05 18:05:00,81.6,77.0,30.04,WSW,245,4.0,7.0,86,0.00,,,0.38,weatherlink.com 1.10,2013-09-05 22:05:00,
2013-09-05 18:20:00,81.7,77.0,30.04,WSW,238,1.0,6.0,85,0.00,,,0.38,weatherlink.com 1.10,2013-09-05 22:20:00,
2013-09-05 18:35:00,81.4,76.0,30.04,WSW,246,3.0,6.0,84,0.00,,,0.38,weatherlink.com 1.10,2013-09-05 22:35:00,
2013-09-05 18:50:00,80.7,76.0,30.04,WSW,255,1.0,4.0,85,0.00,,,0.38,weatherlink.com 1.10,2013-09-05 22:50:00,
2013-09-05 19:05:00,79.8,76.0,30.04,WSW,257,0.0,1.0,87,0.00,,,0.38,weatherlink.com 1.10,2013-09-05 23:05:00,
2013-09-05 19:21:00,79.3,76.0,30.03,West,279,1.0,2.0,88,0.00,,,0.38,weatherlink.com 1.10,2013-09-05 23:21:00,
2013-09-05 19:36:00,78.8,76.0,30.03,West,278,1.0,1.0,90,0.00,,,0.38,weatherlink.com 1.10,2013-09-05 23:36:00,
2013-09-05 19:51:00,78.1,75.0,30.03,WNW,285,1.0,1.0,91,0.00,,,0.38,weatherlink.com 1.10,2013-09-05 23:51:00,
2013-09-05 20:06:00,77.6,75.0,30.03,WNW,284,0.0,1.0,92,0.00,,,0.38,weatherlink.com 1.10,2013-09-06 00:06:00,
2013-09-05 20:21:00,77.2,75.0,30.03,WNW,285,0.0,1.0,93,0.00,,,0.38,weatherlink.com 1.10,2013-09-06 00:21:00,
2013-09-05 20:36:00,77.1,75.0,30.04,WNW,285,0.0,1.0,93,0.00,,,0.38,weatherlink.com 1.10,2013-09-06 00:36:00,
2013-09-05 20:51:00,76.8,75.0,30.04,WNW,285,0.0,2.0,94,0.00,,,0.38,weatherlink.com 1.10,2013-09-06 00:51:00,
2013-09-05 21:06:00,76.3,75.0,30.05,WNW,285,0.0,1.0,94,0.00,,,0.38,weatherlink.com 1.10,2013-09-06 01:06:00,
2013-09-05 21:21:00,76.2,75.0,30.05,WNW,285,1.0,1.0,95,0.00,,,0.38,weatherlink.com 1.10,2013-09-06 01:21:00,
2013-09-05 21:36:00,76.1,75.0,30.05,WNW,294,1.0,1.0,95,0.00,,,0.38,weatherlink.com 1.10,2013-09-06 01:36:00,
2013-09-05 21:51:00,76.0,75.0,30.05,WNW,294,0.0,1.0,95,0.00,,,0.38,weatherlink.com 1.10,2013-09-06 01:51:00,
2013-09-05 22:06:00,75.6,74.0,30.06,WNW,294,0.0,0.0,95,0.00,,,0.38,weatherlink.com 1.10,2013-09-06 02:06:00,
2013-09-05 22:21:00,75.6,74.0,30.06,WNW,294,0.0,0.0,96,0.00,,,0.38,weatherlink.com 1.10,2013-09-06 02:21:00,
2013-09-05 22:36:00,75.7,75.0,30.06,WNW,294,0.0,0.0,96,0.00,,,0.38,weatherlink.com 1.10,2013-09-06 02:36:00,
2013-09-05 22:51:00,75.6,74.0,30.07,WNW,293,0.0,1.0,96,0.00,,,0.38,weatherlink.com 1.10,2013-09-06 02:51:00,
2013-09-05 23:06:00,75.4,75.0,30.06,WNW,293,0.0,1.0,97,0.00,,,0.38,weatherlink.com 1.10,2013-09-06 03:06:00,
2013-09-05 23:21:00,75.4,75.0,30.07,WNW,293,0.0,0.0,97,0.00,,,0.38,weatherlink.com 1.10,2013-09-06 03:21:00,
2013-09-05 23:36:00,75.3,74.0,30.06,WNW,293,0.0,1.0,96,0.00,,,0.38,weatherlink.com 1.10,2013-09-06 03:36:00,
2013-09-05 23:51:00,74.9,74.0,30.06,WNW,293,0.0,1.0,97,0.00,,,0.38,weatherlink.com 1.10,2013-09-06 03:51:00,